sensor_id;sensor_type;location;lat;lon;timestamp;P1;durP1;ratioP1;P2;durP2;ratioP2
71639;SDS011;60912;48.968;10.124;2023-04-30T00:01:36;10.80;;;5.07;;
71639;SDS011;60912;48.968;10.124;2023-04-30T00:04:01;7.47;;;4.90;;
71639;SDS011;60912;48.968;10.124;2023-04-30T00:06:26;8.77;;;5.60;;
71639;SDS011;60912;48.968;10.124;2023-04-30T00:08:52;8.07;;;5.20;;
71639;SDS011;60912;48.968;10.124;2023-04-30T00:11:17;10.50;;;5.83;;
71639;SDS011;60912;48.968;10.124;2023-04-30T00:13:43;8.57;;;5.37;;
71639;SDS011;60912;48.968;10.124;2023-04-30T00:16:09;8.55;;;5.43;;
71639;SDS011;60912;48.968;10.124;2023-04-30T00:18:35;9.13;;;5.03;;
71639;SDS011;60912;48.968;10.124;2023-04-30T00:21:01;8.88;;;5.60;;
71639;SDS011;60912;48.968;10.124;2023-04-30T00:23:26;9.70;;;5.27;;
71639;SDS011;60912;48.968;10.124;2023-04-30T00:25:51;8.18;;;5.47;;
71639;SDS011;60912;48.968;10.124;2023-04-30T00:28:17;10.83;;;5.57;;
71639;SDS011;60912;48.968;10.124;2023-04-30T00:30:42;8.10;;;5.30;;
71639;SDS011;60912;48.968;10.124;2023-04-30T00:33:08;8.75;;;5.30;;
71639;SDS011;60912;48.968;10.124;2023-04-30T00:35:34;8.47;;;5.67;;
71639;SDS011;60912;48.968;10.124;2023-04-30T00:37:59;9.60;;;5.63;;
71639;SDS011;60912;48.968;10.124;2023-04-30T00:40:25;9.03;;;5.27;;
71639;SDS011;60912;48.968;10.124;2023-04-30T00:42:54;8.77;;;5.88;;
71639;SDS011;60912;48.968;10.124;2023-04-30T00:45:20;8.45;;;5.60;;
71639;SDS011;60912;48.968;10.124;2023-04-30T00:47:46;8.98;;;6.07;;
71639;SDS011;60912;48.968;10.124;2023-04-30T00:50:12;11.43;;;6.50;;
71639;SDS011;60912;48.968;10.124;2023-04-30T00:52:40;9.00;;;6.18;;
71639;SDS011;60912;48.968;10.124;2023-04-30T00:55:06;8.43;;;5.90;;
71639;SDS011;60912;48.968;10.124;2023-04-30T00:57:32;11.15;;;6.38;;
71639;SDS011;60912;48.968;10.124;2023-04-30T01:00:00;9.52;;;6.03;;
71639;SDS011;60912;48.968;10.124;2023-04-30T01:02:26;8.57;;;5.97;;
71639;SDS011;60912;48.968;10.124;2023-04-30T01:04:51;7.70;;;5.60;;
71639;SDS011;60912;48.968;10.124;2023-04-30T01:07:17;20.33;;;6.30;;
71639;SDS011;60912;48.968;10.124;2023-04-30T01:09:42;10.17;;;6.07;;
71639;SDS011;60912;48.968;10.124;2023-04-30T01:17:16;8.60;;;5.95;;
71639;SDS011;60912;48.968;10.124;2023-04-30T01:19:47;9.18;;;6.10;;
71639;SDS011;60912;48.968;10.124;2023-04-30T01:22:19;11.48;;;6.40;;
71639;SDS011;60912;48.968;10.124;2023-04-30T01:28:08;9.98;;;6.53;;
71639;SDS011;60912;48.968;10.124;2023-04-30T01:30:34;10.80;;;6.38;;
71639;SDS011;60912;48.968;10.124;2023-04-30T01:33:01;9.90;;;6.20;;
71639;SDS011;60912;48.968;10.124;2023-04-30T01:46:55;8.98;;;6.32;;
71639;SDS011;60912;48.968;10.124;2023-04-30T01:52:42;10.23;;;6.90;;
71639;SDS011;60912;48.968;10.124;2023-04-30T01:55:13;9.80;;;6.60;;
71639;SDS011;60912;48.968;10.124;2023-04-30T01:57:42;11.45;;;6.97;;
71639;SDS011;60912;48.968;10.124;2023-04-30T02:00:14;9.80;;;7.03;;
71639;SDS011;60912;48.968;10.124;2023-04-30T02:02:41;10.95;;;6.43;;
71639;SDS011;60912;48.968;10.124;2023-04-30T02:05:07;9.53;;;6.90;;
71639;SDS011;60912;48.968;10.124;2023-04-30T02:07:42;10.77;;;6.67;;
71639;SDS011;60912;48.968;10.124;2023-04-30T02:10:09;11.43;;;6.70;;
71639;SDS011;60912;48.968;10.124;2023-04-30T02:12:36;10.40;;;6.97;;
71639;SDS011;60912;48.968;10.124;2023-04-30T02:15:02;9.73;;;6.80;;
71639;SDS011;60912;48.968;10.124;2023-04-30T02:17:28;11.77;;;6.75;;
71639;SDS011;60912;48.968;10.124;2023-04-30T02:19:54;10.90;;;7.28;;
71639;SDS011;60912;48.968;10.124;2023-04-30T02:22:19;10.73;;;6.77;;
71639;SDS011;60912;48.968;10.124;2023-04-30T02:24:45;10.37;;;6.53;;
71639;SDS011;60912;48.968;10.124;2023-04-30T02:27:10;10.20;;;6.87;;
71639;SDS011;60912;48.968;10.124;2023-04-30T02:29:35;9.90;;;7.17;;
71639;SDS011;60912;48.968;10.124;2023-04-30T02:32:01;10.07;;;6.70;;
71639;SDS011;60912;48.968;10.124;2023-04-30T02:34:26;10.13;;;6.87;;
71639;SDS011;60912;48.968;10.124;2023-04-30T02:36:51;10.30;;;6.93;;
71639;SDS011;60912;48.968;10.124;2023-04-30T02:39:17;9.57;;;7.13;;
71639;SDS011;60912;48.968;10.124;2023-04-30T02:41:42;9.93;;;6.97;;
71639;SDS011;60912;48.968;10.124;2023-04-30T02:44:08;11.05;;;6.88;;
71639;SDS011;60912;48.968;10.124;2023-04-30T02:46:33;10.83;;;6.63;;
71639;SDS011;60912;48.968;10.124;2023-04-30T02:48:58;12.07;;;6.83;;
71639;SDS011;60912;48.968;10.124;2023-04-30T02:51:24;10.97;;;7.10;;
71639;SDS011;60912;48.968;10.124;2023-04-30T02:53:49;9.80;;;7.10;;
71639;SDS011;60912;48.968;10.124;2023-04-30T02:56:14;11.93;;;7.67;;
71639;SDS011;60912;48.968;10.124;2023-04-30T02:58:40;11.40;;;7.77;;
71639;SDS011;60912;48.968;10.124;2023-04-30T03:01:05;10.52;;;7.45;;
71639;SDS011;60912;48.968;10.124;2023-04-30T03:03:31;13.13;;;7.47;;
71639;SDS011;60912;48.968;10.124;2023-04-30T03:05:56;10.70;;;7.70;;
71639;SDS011;60912;48.968;10.124;2023-04-30T03:08:23;10.63;;;7.60;;
71639;SDS011;60912;48.968;10.124;2023-04-30T03:10:49;11.32;;;7.10;;
71639;SDS011;60912;48.968;10.124;2023-04-30T03:13:14;10.17;;;7.53;;
71639;SDS011;60912;48.968;10.124;2023-04-30T03:15:40;10.53;;;7.40;;
71639;SDS011;60912;48.968;10.124;2023-04-30T03:18:05;12.70;;;7.50;;
71639;SDS011;60912;48.968;10.124;2023-04-30T03:20:30;11.30;;;7.70;;
71639;SDS011;60912;48.968;10.124;2023-04-30T03:22:56;12.13;;;8.27;;
71639;SDS011;60912;48.968;10.124;2023-04-30T03:25:21;10.73;;;7.83;;
71639;SDS011;60912;48.968;10.124;2023-04-30T03:27:47;10.87;;;7.00;;
71639;SDS011;60912;48.968;10.124;2023-04-30T03:30:12;11.40;;;7.40;;
71639;SDS011;60912;48.968;10.124;2023-04-30T03:32:37;10.63;;;7.70;;
71639;SDS011;60912;48.968;10.124;2023-04-30T03:35:03;10.83;;;7.40;;
71639;SDS011;60912;48.968;10.124;2023-04-30T03:37:29;11.88;;;7.90;;
71639;SDS011;60912;48.968;10.124;2023-04-30T03:39:54;12.67;;;8.23;;
71639;SDS011;60912;48.968;10.124;2023-04-30T03:42:20;10.60;;;7.57;;
71639;SDS011;60912;48.968;10.124;2023-04-30T03:44:45;10.73;;;7.70;;
71639;SDS011;60912;48.968;10.124;2023-04-30T03:47:10;11.87;;;8.03;;
71639;SDS011;60912;48.968;10.124;2023-04-30T03:49:36;13.75;;;8.40;;
71639;SDS011;60912;48.968;10.124;2023-04-30T03:52:01;13.30;;;7.97;;
71639;SDS011;60912;48.968;10.124;2023-04-30T03:54:27;13.73;;;8.47;;
71639;SDS011;60912;48.968;10.124;2023-04-30T03:56:53;12.48;;;7.93;;
71639;SDS011;60912;48.968;10.124;2023-04-30T03:59:18;11.27;;;8.03;;
71639;SDS011;60912;48.968;10.124;2023-04-30T04:01:44;11.20;;;8.07;;
71639;SDS011;60912;48.968;10.124;2023-04-30T04:04:10;12.00;;;8.23;;
71639;SDS011;60912;48.968;10.124;2023-04-30T04:06:35;12.55;;;8.80;;
71639;SDS011;60912;48.968;10.124;2023-04-30T04:09:01;12.67;;;8.40;;
71639;SDS011;60912;48.968;10.124;2023-04-30T04:11:26;12.47;;;7.97;;
71639;SDS011;60912;48.968;10.124;2023-04-30T04:13:51;11.40;;;7.80;;
71639;SDS011;60912;48.968;10.124;2023-04-30T04:16:17;11.87;;;8.23;;
71639;SDS011;60912;48.968;10.124;2023-04-30T04:18:42;13.50;;;8.87;;
71639;SDS011;60912;48.968;10.124;2023-04-30T04:21:07;13.50;;;8.43;;
71639;SDS011;60912;48.968;10.124;2023-04-30T04:23:33;12.17;;;8.30;;
71639;SDS011;60912;48.968;10.124;2023-04-30T04:25:58;11.40;;;7.87;;
71639;SDS011;60912;48.968;10.124;2023-04-30T04:28:24;12.73;;;8.87;;
71639;SDS011;60912;48.968;10.124;2023-04-30T04:30:49;12.43;;;7.93;;
71639;SDS011;60912;48.968;10.124;2023-04-30T04:33:15;15.07;;;9.80;;
71639;SDS011;60912;48.968;10.124;2023-04-30T04:35:41;15.35;;;9.40;;
71639;SDS011;60912;48.968;10.124;2023-04-30T04:38:06;12.40;;;8.90;;
71639;SDS011;60912;48.968;10.124;2023-04-30T04:40:32;16.87;;;9.27;;
71639;SDS011;60912;48.968;10.124;2023-04-30T04:42:59;16.90;;;8.60;;
71639;SDS011;60912;48.968;10.124;2023-04-30T04:45:25;14.37;;;9.07;;
71639;SDS011;60912;48.968;10.124;2023-04-30T04:47:50;13.90;;;8.93;;
71639;SDS011;60912;48.968;10.124;2023-04-30T04:50:16;13.00;;;8.67;;
71639;SDS011;60912;48.968;10.124;2023-04-30T04:52:42;12.98;;;8.45;;
71639;SDS011;60912;48.968;10.124;2023-04-30T04:55:07;12.40;;;9.03;;
71639;SDS011;60912;48.968;10.124;2023-04-30T04:57:33;14.00;;;8.50;;
71639;SDS011;60912;48.968;10.124;2023-04-30T04:59:59;12.33;;;8.70;;
71639;SDS011;60912;48.968;10.124;2023-04-30T05:02:24;13.57;;;9.13;;
71639;SDS011;60912;48.968;10.124;2023-04-30T05:04:50;11.53;;;8.17;;
71639;SDS011;60912;48.968;10.124;2023-04-30T05:07:18;12.63;;;9.07;;
71639;SDS011;60912;48.968;10.124;2023-04-30T05:09:44;12.02;;;8.27;;
71639;SDS011;60912;48.968;10.124;2023-04-30T05:12:13;14.65;;;9.38;;
71639;SDS011;60912;48.968;10.124;2023-04-30T05:14:39;13.00;;;8.30;;
71639;SDS011;60912;48.968;10.124;2023-04-30T05:17:04;12.60;;;8.33;;
71639;SDS011;60912;48.968;10.124;2023-04-30T05:19:31;14.68;;;8.90;;
71639;SDS011;60912;48.968;10.124;2023-04-30T05:21:56;13.05;;;9.40;;
71639;SDS011;60912;48.968;10.124;2023-04-30T05:24:21;12.60;;;8.43;;
71639;SDS011;60912;48.968;10.124;2023-04-30T05:26:47;12.17;;;8.53;;
71639;SDS011;60912;48.968;10.124;2023-04-30T05:29:13;12.00;;;8.33;;
71639;SDS011;60912;48.968;10.124;2023-04-30T05:31:38;14.75;;;8.88;;
71639;SDS011;60912;48.968;10.124;2023-04-30T05:34:03;14.70;;;8.70;;
71639;SDS011;60912;48.968;10.124;2023-04-30T05:36:29;12.63;;;9.10;;
71639;SDS011;60912;48.968;10.124;2023-04-30T05:38:56;11.88;;;8.80;;
71639;SDS011;60912;48.968;10.124;2023-04-30T05:41:21;10.93;;;8.20;;
71639;SDS011;60912;48.968;10.124;2023-04-30T05:43:47;11.75;;;7.85;;
71639;SDS011;60912;48.968;10.124;2023-04-30T05:46:12;11.70;;;8.73;;
71639;SDS011;60912;48.968;10.124;2023-04-30T05:48:37;12.47;;;8.20;;
71639;SDS011;60912;48.968;10.124;2023-04-30T05:51:03;10.53;;;8.33;;
71639;SDS011;60912;48.968;10.124;2023-04-30T05:53:30;11.75;;;7.32;;
71639;SDS011;60912;48.968;10.124;2023-04-30T05:55:55;11.43;;;6.87;;
71639;SDS011;60912;48.968;10.124;2023-04-30T05:58:21;10.97;;;7.93;;
71639;SDS011;60912;48.968;10.124;2023-04-30T06:00:49;12.35;;;7.70;;
71639;SDS011;60912;48.968;10.124;2023-04-30T06:03:18;9.93;;;7.20;;
71639;SDS011;60912;48.968;10.124;2023-04-30T06:05:45;10.88;;;7.60;;
71639;SDS011;60912;48.968;10.124;2023-04-30T06:08:11;9.93;;;7.60;;
71639;SDS011;60912;48.968;10.124;2023-04-30T06:10:36;11.30;;;7.47;;
71639;SDS011;60912;48.968;10.124;2023-04-30T06:13:02;9.75;;;7.60;;
71639;SDS011;60912;48.968;10.124;2023-04-30T06:15:28;10.98;;;7.60;;
71639;SDS011;60912;48.968;10.124;2023-04-30T06:17:54;9.63;;;7.80;;
71639;SDS011;60912;48.968;10.124;2023-04-30T06:20:19;10.67;;;8.23;;
71639;SDS011;60912;48.968;10.124;2023-04-30T06:22:44;12.23;;;8.00;;
71639;SDS011;60912;48.968;10.124;2023-04-30T06:25:10;11.70;;;8.73;;
71639;SDS011;60912;48.968;10.124;2023-04-30T06:27:36;12.40;;;9.00;;
71639;SDS011;60912;48.968;10.124;2023-04-30T06:30:01;11.73;;;8.30;;
71639;SDS011;60912;48.968;10.124;2023-04-30T06:32:27;10.93;;;8.32;;
71639;SDS011;60912;48.968;10.124;2023-04-30T06:34:52;12.27;;;8.77;;
71639;SDS011;60912;48.968;10.124;2023-04-30T06:37:17;10.83;;;8.33;;
71639;SDS011;60912;48.968;10.124;2023-04-30T06:39:43;11.43;;;7.83;;
71639;SDS011;60912;48.968;10.124;2023-04-30T06:42:08;11.05;;;7.75;;
71639;SDS011;60912;48.968;10.124;2023-04-30T06:44:42;11.07;;;8.17;;
71639;SDS011;60912;48.968;10.124;2023-04-30T06:47:15;13.43;;;9.05;;
71639;SDS011;60912;48.968;10.124;2023-04-30T06:49:40;9.97;;;8.17;;
71639;SDS011;60912;48.968;10.124;2023-04-30T06:52:05;12.05;;;8.38;;
71639;SDS011;60912;48.968;10.124;2023-04-30T06:54:31;12.53;;;8.30;;
71639;SDS011;60912;48.968;10.124;2023-04-30T06:56:59;12.13;;;9.37;;
71639;SDS011;60912;48.968;10.124;2023-04-30T06:59:31;10.32;;;7.82;;
71639;SDS011;60912;48.968;10.124;2023-04-30T07:01:57;10.90;;;8.68;;
71639;SDS011;60912;48.968;10.124;2023-04-30T07:04:23;11.80;;;9.17;;
71639;SDS011;60912;48.968;10.124;2023-04-30T07:06:48;11.00;;;7.87;;
71639;SDS011;60912;48.968;10.124;2023-04-30T07:09:14;14.35;;;9.93;;
71639;SDS011;60912;48.968;10.124;2023-04-30T07:11:40;13.13;;;8.07;;
71639;SDS011;60912;48.968;10.124;2023-04-30T07:14:06;11.45;;;8.40;;
71639;SDS011;60912;48.968;10.124;2023-04-30T07:16:32;12.10;;;9.10;;
71639;SDS011;60912;48.968;10.124;2023-04-30T07:18:58;11.57;;;8.02;;
71639;SDS011;60912;48.968;10.124;2023-04-30T07:21:24;12.77;;;8.90;;
71639;SDS011;60912;48.968;10.124;2023-04-30T07:23:50;14.20;;;8.10;;
71639;SDS011;60912;48.968;10.124;2023-04-30T07:26:15;9.77;;;6.90;;
71639;SDS011;60912;48.968;10.124;2023-04-30T07:28:41;10.03;;;7.47;;
71639;SDS011;60912;48.968;10.124;2023-04-30T07:31:06;10.13;;;6.40;;
71639;SDS011;60912;48.968;10.124;2023-04-30T07:33:32;8.27;;;6.25;;
71639;SDS011;60912;48.968;10.124;2023-04-30T07:35:57;10.07;;;6.63;;
71639;SDS011;60912;48.968;10.124;2023-04-30T07:38:23;9.90;;;6.57;;
71639;SDS011;60912;48.968;10.124;2023-04-30T07:40:48;10.85;;;7.47;;
71639;SDS011;60912;48.968;10.124;2023-04-30T07:43:14;8.40;;;6.73;;
71639;SDS011;60912;48.968;10.124;2023-04-30T07:45:39;12.10;;;7.77;;
71639;SDS011;60912;48.968;10.124;2023-04-30T07:48:06;12.57;;;6.88;;
71639;SDS011;60912;48.968;10.124;2023-04-30T07:50:31;10.17;;;6.77;;
71639;SDS011;60912;48.968;10.124;2023-04-30T07:53:01;10.18;;;6.82;;
71639;SDS011;60912;48.968;10.124;2023-04-30T07:55:27;7.50;;;5.55;;
71639;SDS011;60912;48.968;10.124;2023-04-30T07:57:55;10.23;;;5.90;;
71639;SDS011;60912;48.968;10.124;2023-04-30T08:00:20;7.93;;;6.10;;
71639;SDS011;60912;48.968;10.124;2023-04-30T08:02:46;8.97;;;6.60;;
71639;SDS011;60912;48.968;10.124;2023-04-30T08:05:14;8.55;;;5.43;;
71639;SDS011;60912;48.968;10.124;2023-04-30T08:07:39;7.20;;;5.07;;
71639;SDS011;60912;48.968;10.124;2023-04-30T08:10:08;9.25;;;6.60;;
71639;SDS011;60912;48.968;10.124;2023-04-30T08:12:40;7.25;;;5.70;;
71639;SDS011;60912;48.968;10.124;2023-04-30T08:15:13;7.13;;;4.50;;
71639;SDS011;60912;48.968;10.124;2023-04-30T08:17:38;8.52;;;5.20;;
71639;SDS011;60912;48.968;10.124;2023-04-30T08:20:13;7.38;;;5.28;;
71639;SDS011;60912;48.968;10.124;2023-04-30T08:22:39;9.27;;;6.33;;
71639;SDS011;60912;48.968;10.124;2023-04-30T08:25:13;7.83;;;5.53;;
71639;SDS011;60912;48.968;10.124;2023-04-30T08:27:38;9.65;;;6.18;;
71639;SDS011;60912;48.968;10.124;2023-04-30T08:33:04;7.93;;;5.10;;
71639;SDS011;60912;48.968;10.124;2023-04-30T08:35:30;6.07;;;4.83;;
71639;SDS011;60912;48.968;10.124;2023-04-30T08:37:55;6.95;;;4.85;;
71639;SDS011;60912;48.968;10.124;2023-04-30T08:40:21;8.83;;;5.57;;
71639;SDS011;60912;48.968;10.124;2023-04-30T08:42:49;7.37;;;5.53;;
71639;SDS011;60912;48.968;10.124;2023-04-30T08:45:29;8.02;;;5.47;;
71639;SDS011;60912;48.968;10.124;2023-04-30T08:47:58;8.73;;;5.80;;
71639;SDS011;60912;48.968;10.124;2023-04-30T08:50:27;8.75;;;5.97;;
71639;SDS011;60912;48.968;10.124;2023-04-30T08:52:53;8.67;;;5.77;;
71639;SDS011;60912;48.968;10.124;2023-04-30T08:55:18;10.13;;;5.93;;
71639;SDS011;60912;48.968;10.124;2023-04-30T08:57:44;9.33;;;5.60;;
71639;SDS011;60912;48.968;10.124;2023-04-30T09:00:09;9.03;;;5.67;;
71639;SDS011;60912;48.968;10.124;2023-04-30T09:02:38;8.90;;;5.30;;
71639;SDS011;60912;48.968;10.124;2023-04-30T09:05:09;9.32;;;5.68;;
71639;SDS011;60912;48.968;10.124;2023-04-30T09:07:40;7.80;;;4.80;;
71639;SDS011;60912;48.968;10.124;2023-04-30T09:10:17;8.07;;;5.17;;
71639;SDS011;60912;48.968;10.124;2023-04-30T09:12:57;7.22;;;4.43;;
71639;SDS011;60912;48.968;10.124;2023-04-30T09:15:31;6.15;;;3.97;;
71639;SDS011;60912;48.968;10.124;2023-04-30T09:20:35;8.57;;;4.20;;
71639;SDS011;60912;48.968;10.124;2023-04-30T09:23:05;6.90;;;4.10;;
71639;SDS011;60912;48.968;10.124;2023-04-30T09:25:37;9.80;;;4.30;;
71639;SDS011;60912;48.968;10.124;2023-04-30T09:28:08;6.78;;;4.70;;
71639;SDS011;60912;48.968;10.124;2023-04-30T09:30:35;6.78;;;3.90;;
71639;SDS011;60912;48.968;10.124;2023-04-30T09:33:01;5.80;;;3.80;;
71639;SDS011;60912;48.968;10.124;2023-04-30T09:35:36;6.78;;;3.58;;
71639;SDS011;60912;48.968;10.124;2023-04-30T09:38:06;6.25;;;3.88;;
71639;SDS011;60912;48.968;10.124;2023-04-30T09:40:35;6.03;;;3.97;;
71639;SDS011;60912;48.968;10.124;2023-04-30T09:43:03;6.80;;;3.67;;
71639;SDS011;60912;48.968;10.124;2023-04-30T09:45:41;8.10;;;3.42;;
71639;SDS011;60912;48.968;10.124;2023-04-30T09:48:11;5.65;;;3.03;;
71639;SDS011;60912;48.968;10.124;2023-04-30T09:50:40;5.88;;;3.83;;
71639;SDS011;60912;48.968;10.124;2023-04-30T09:53:06;7.13;;;4.50;;
71639;SDS011;60912;48.968;10.124;2023-04-30T09:55:33;8.80;;;3.97;;
71639;SDS011;60912;48.968;10.124;2023-04-30T09:58:01;5.68;;;3.90;;
71639;SDS011;60912;48.968;10.124;2023-04-30T10:00:34;6.22;;;4.15;;
71639;SDS011;60912;48.968;10.124;2023-04-30T10:03:04;5.53;;;3.78;;
71639;SDS011;60912;48.968;10.124;2023-04-30T10:05:35;6.37;;;4.30;;
71639;SDS011;60912;48.968;10.124;2023-04-30T10:08:15;5.38;;;3.45;;
71639;SDS011;60912;48.968;10.124;2023-04-30T10:10:45;6.43;;;3.67;;
71639;SDS011;60912;48.968;10.124;2023-04-30T10:13:16;6.28;;;3.83;;
71639;SDS011;60912;48.968;10.124;2023-04-30T10:15:46;7.25;;;3.72;;
71639;SDS011;60912;48.968;10.124;2023-04-30T10:18:34;6.23;;;3.87;;
71639;SDS011;60912;48.968;10.124;2023-04-30T10:21:04;6.50;;;4.18;;
71639;SDS011;60912;48.968;10.124;2023-04-30T10:23:36;5.80;;;3.70;;
71639;SDS011;60912;48.968;10.124;2023-04-30T10:26:03;5.90;;;3.63;;
71639;SDS011;60912;48.968;10.124;2023-04-30T10:28:29;6.57;;;4.57;;
71639;SDS011;60912;48.968;10.124;2023-04-30T10:30:56;6.65;;;4.72;;
71639;SDS011;60912;48.968;10.124;2023-04-30T10:36:31;6.15;;;3.78;;
71639;SDS011;60912;48.968;10.124;2023-04-30T10:39:02;6.57;;;3.80;;
71639;SDS011;60912;48.968;10.124;2023-04-30T10:41:29;7.97;;;4.43;;
71639;SDS011;60912;48.968;10.124;2023-04-30T10:43:56;5.72;;;4.10;;
71639;SDS011;60912;48.968;10.124;2023-04-30T10:46:24;5.40;;;3.60;;
71639;SDS011;60912;48.968;10.124;2023-04-30T10:48:55;5.93;;;3.95;;
71639;SDS011;60912;48.968;10.124;2023-04-30T10:51:21;7.38;;;3.92;;
71639;SDS011;60912;48.968;10.124;2023-04-30T10:53:50;6.07;;;4.83;;
71639;SDS011;60912;48.968;10.124;2023-04-30T10:56:31;5.63;;;3.53;;
71639;SDS011;60912;48.968;10.124;2023-04-30T10:58:58;8.33;;;3.80;;
71639;SDS011;60912;48.968;10.124;2023-04-30T11:01:27;6.65;;;3.92;;
71639;SDS011;60912;48.968;10.124;2023-04-30T11:04:09;6.50;;;3.92;;
71639;SDS011;60912;48.968;10.124;2023-04-30T11:09:23;4.63;;;3.00;;
71639;SDS011;60912;48.968;10.124;2023-04-30T11:12:20;5.43;;;3.33;;
71639;SDS011;60912;48.968;10.124;2023-04-30T11:14:52;5.43;;;3.47;;
71639;SDS011;60912;48.968;10.124;2023-04-30T11:17:24;5.10;;;3.35;;
71639;SDS011;60912;48.968;10.124;2023-04-30T11:19:51;5.40;;;3.65;;
71639;SDS011;60912;48.968;10.124;2023-04-30T11:22:23;6.07;;;3.42;;
71639;SDS011;60912;48.968;10.124;2023-04-30T11:27:37;4.90;;;3.20;;
71639;SDS011;60912;48.968;10.124;2023-04-30T11:30:09;8.10;;;3.30;;
71639;SDS011;60912;48.968;10.124;2023-04-30T11:32:36;4.43;;;3.30;;
71639;SDS011;60912;48.968;10.124;2023-04-30T11:35:03;6.55;;;3.25;;
71639;SDS011;60912;48.968;10.124;2023-04-30T11:39:59;5.07;;;2.90;;
71639;SDS011;60912;48.968;10.124;2023-04-30T11:42:26;5.22;;;3.25;;
71639;SDS011;60912;48.968;10.124;2023-04-30T11:44:54;6.20;;;3.28;;
71639;SDS011;60912;48.968;10.124;2023-04-30T11:47:27;5.82;;;3.55;;
71639;SDS011;60912;48.968;10.124;2023-04-30T11:50:02;5.03;;;3.50;;
71639;SDS011;60912;48.968;10.124;2023-04-30T11:52:27;6.47;;;3.50;;
71639;SDS011;60912;48.968;10.124;2023-04-30T11:54:53;6.27;;;3.20;;
71639;SDS011;60912;48.968;10.124;2023-04-30T11:57:19;4.93;;;3.67;;
71639;SDS011;60912;48.968;10.124;2023-04-30T11:59:45;5.33;;;3.30;;
71639;SDS011;60912;48.968;10.124;2023-04-30T12:02:13;5.83;;;3.50;;
71639;SDS011;60912;48.968;10.124;2023-04-30T12:04:41;6.07;;;3.85;;
71639;SDS011;60912;48.968;10.124;2023-04-30T12:07:07;4.50;;;3.05;;
71639;SDS011;60912;48.968;10.124;2023-04-30T12:09:50;5.10;;;3.30;;
71639;SDS011;60912;48.968;10.124;2023-04-30T12:12:25;6.95;;;3.70;;
71639;SDS011;60912;48.968;10.124;2023-04-30T12:14:51;5.83;;;3.43;;
71639;SDS011;60912;48.968;10.124;2023-04-30T12:17:32;7.28;;;3.20;;
71639;SDS011;60912;48.968;10.124;2023-04-30T12:19:58;4.90;;;3.10;;
71639;SDS011;60912;48.968;10.124;2023-04-30T12:22:24;5.45;;;3.30;;
71639;SDS011;60912;48.968;10.124;2023-04-30T12:24:50;5.40;;;3.38;;
71639;SDS011;60912;48.968;10.124;2023-04-30T12:27:16;4.80;;;2.87;;
71639;SDS011;60912;48.968;10.124;2023-04-30T12:29:45;4.90;;;3.03;;
71639;SDS011;60912;48.968;10.124;2023-04-30T12:32:12;6.00;;;2.92;;
71639;SDS011;60912;48.968;10.124;2023-04-30T12:34:42;5.57;;;3.10;;
71639;SDS011;60912;48.968;10.124;2023-04-30T12:37:07;5.60;;;3.17;;
71639;SDS011;60912;48.968;10.124;2023-04-30T12:39:33;5.70;;;3.13;;
71639;SDS011;60912;48.968;10.124;2023-04-30T12:41:59;6.28;;;2.95;;
71639;SDS011;60912;48.968;10.124;2023-04-30T12:44:25;5.70;;;3.13;;
71639;SDS011;60912;48.968;10.124;2023-04-30T12:46:52;6.63;;;3.00;;
71639;SDS011;60912;48.968;10.124;2023-04-30T12:51:49;5.95;;;3.03;;
71639;SDS011;60912;48.968;10.124;2023-04-30T12:54:23;6.27;;;3.50;;
71639;SDS011;60912;48.968;10.124;2023-04-30T12:57:08;5.70;;;2.80;;
71639;SDS011;60912;48.968;10.124;2023-04-30T12:59:36;5.00;;;3.20;;
71639;SDS011;60912;48.968;10.124;2023-04-30T13:02:13;4.93;;;3.50;;
71639;SDS011;60912;48.968;10.124;2023-04-30T13:04:40;5.57;;;3.10;;
71639;SDS011;60912;48.968;10.124;2023-04-30T13:07:06;5.45;;;3.10;;
71639;SDS011;60912;48.968;10.124;2023-04-30T13:09:32;5.23;;;3.00;;
71639;SDS011;60912;48.968;10.124;2023-04-30T13:11:58;5.82;;;3.15;;
71639;SDS011;60912;48.968;10.124;2023-04-30T13:14:24;4.87;;;2.97;;
71639;SDS011;60912;48.968;10.124;2023-04-30T13:16:50;4.13;;;3.00;;
71639;SDS011;60912;48.968;10.124;2023-04-30T13:19:15;6.13;;;3.40;;
71639;SDS011;60912;48.968;10.124;2023-04-30T13:21:40;4.93;;;3.27;;
71639;SDS011;60912;48.968;10.124;2023-04-30T13:24:06;7.93;;;3.20;;
71639;SDS011;60912;48.968;10.124;2023-04-30T13:26:31;4.22;;;2.78;;
71639;SDS011;60912;48.968;10.124;2023-04-30T13:28:56;7.30;;;3.77;;
71639;SDS011;60912;48.968;10.124;2023-04-30T13:31:22;5.90;;;3.60;;
71639;SDS011;60912;48.968;10.124;2023-04-30T13:33:47;5.83;;;3.47;;
71639;SDS011;60912;48.968;10.124;2023-04-30T13:36:13;5.90;;;3.10;;
71639;SDS011;60912;48.968;10.124;2023-04-30T13:38:39;4.75;;;3.08;;
71639;SDS011;60912;48.968;10.124;2023-04-30T13:41:04;5.07;;;3.30;;
71639;SDS011;60912;48.968;10.124;2023-04-30T13:43:30;4.65;;;3.22;;
71639;SDS011;60912;48.968;10.124;2023-04-30T13:45:56;3.87;;;2.97;;
71639;SDS011;60912;48.968;10.124;2023-04-30T13:48:24;6.60;;;3.30;;
71639;SDS011;60912;48.968;10.124;2023-04-30T13:50:53;5.77;;;3.47;;
71639;SDS011;60912;48.968;10.124;2023-04-30T13:53:18;6.63;;;3.13;;
71639;SDS011;60912;48.968;10.124;2023-04-30T13:55:44;6.40;;;3.37;;
71639;SDS011;60912;48.968;10.124;2023-04-30T13:58:09;4.95;;;2.80;;
71639;SDS011;60912;48.968;10.124;2023-04-30T14:00:35;5.00;;;3.20;;
71639;SDS011;60912;48.968;10.124;2023-04-30T14:03:00;4.95;;;3.05;;
71639;SDS011;60912;48.968;10.124;2023-04-30T14:05:26;4.53;;;3.10;;
71639;SDS011;60912;48.968;10.124;2023-04-30T14:07:51;5.27;;;2.90;;
71639;SDS011;60912;48.968;10.124;2023-04-30T14:10:17;4.63;;;2.90;;
71639;SDS011;60912;48.968;10.124;2023-04-30T14:12:42;5.60;;;3.00;;
71639;SDS011;60912;48.968;10.124;2023-04-30T14:15:07;4.47;;;3.13;;
71639;SDS011;60912;48.968;10.124;2023-04-30T14:17:34;4.95;;;3.00;;
71639;SDS011;60912;48.968;10.124;2023-04-30T14:19:59;6.17;;;3.00;;
71639;SDS011;60912;48.968;10.124;2023-04-30T14:22:24;4.73;;;2.77;;
71639;SDS011;60912;48.968;10.124;2023-04-30T14:24:50;4.77;;;2.60;;
71639;SDS011;60912;48.968;10.124;2023-04-30T14:27:16;4.53;;;2.70;;
71639;SDS011;60912;48.968;10.124;2023-04-30T14:29:42;4.17;;;2.93;;
71639;SDS011;60912;48.968;10.124;2023-04-30T14:32:07;4.23;;;2.40;;
71639;SDS011;60912;48.968;10.124;2023-04-30T14:34:32;4.20;;;2.33;;
71639;SDS011;60912;48.968;10.124;2023-04-30T14:36:58;5.27;;;2.73;;
71639;SDS011;60912;48.968;10.124;2023-04-30T14:39:25;4.55;;;2.95;;
71639;SDS011;60912;48.968;10.124;2023-04-30T14:41:52;5.07;;;2.85;;
71639;SDS011;60912;48.968;10.124;2023-04-30T14:44:17;6.27;;;3.00;;
71639;SDS011;60912;48.968;10.124;2023-04-30T14:46:47;4.30;;;2.60;;
71639;SDS011;60912;48.968;10.124;2023-04-30T14:49:13;4.13;;;2.57;;
71639;SDS011;60912;48.968;10.124;2023-04-30T14:51:38;6.93;;;2.93;;
71639;SDS011;60912;48.968;10.124;2023-04-30T14:54:03;4.90;;;2.90;;
71639;SDS011;60912;48.968;10.124;2023-04-30T14:56:32;4.38;;;2.50;;
71639;SDS011;60912;48.968;10.124;2023-04-30T14:58:57;5.35;;;2.60;;
71639;SDS011;60912;48.968;10.124;2023-04-30T15:01:23;4.83;;;2.30;;
71639;SDS011;60912;48.968;10.124;2023-04-30T15:03:48;4.63;;;2.70;;
71639;SDS011;60912;48.968;10.124;2023-04-30T15:06:14;4.30;;;2.42;;
71639;SDS011;60912;48.968;10.124;2023-04-30T15:08:40;4.50;;;2.40;;
71639;SDS011;60912;48.968;10.124;2023-04-30T15:11:05;6.47;;;2.50;;